ADDS TAF Board (Experimental) INFO Settings
IDs: Format: Expanded Condensed

KDEN - Denver Intl, CO, US

Issued at 0056 UTC 26 Jun 2016
Updated at: 0241 UTC 26 Jun 2016
Time0153Z 26/03Z 26/04Z 26/05Z 26/06Z 26/07Z 26/08Z 26/09Z 26/10Z 26/11Z 26/12Z 26/13Z 26/14Z 26/15Z
Type OBS PRVL PRVL PRVL PRVL PRVL PRVL PRVL PRVL PRVL PRVL PRVL PRVL PRVL
VIS 10 >6 >6 >6 >6 >6 >6 >6 >6 >6 >6 >6 >6 >6
CIG -- 200 -- -- -- -- -- -- -- -- -- -- -- --
Cover SCT BKN SCT SCT FEW FEW FEW FEW FEW FEW FEW FEW FEW FEW
FltCat VFR VFR VFR VFR VFR VFR VFR VFR VFR VFR VFR VFR VFR VFR
WX -- -- -- -- -- -- -- -- -- -- -- -- -- --
WDir 120 110 150 150 170 170 170 170 170 170 170 170 170 170
WSpd 6 12 12 12 11 11 11 11 11 11 11 11 11 11
WGst -- -- -- -- -- -- -- -- -- -- -- -- -- --
R07/25
XWnd -3 -4 -10 -10 -11 -11 -11 -11 -11 -11 -11 -11 -11 -11
HWnd 5 11 6 6 2 2 2 2 2 2 2 2 2 2
R08/26
XWnd -3 -4 -10 -10 -11 -11 -11 -11 -11 -11 -11 -11 -11 -11
HWnd 5 11 6 6 2 2 2 2 2 2 2 2 2 2
R16/34
XWnd 5 11 6 6 2 2 2 2 2 2 2 2 2 2
HWnd 3 4 10 10 11 11 11 11 11 11 11 11 11 11
R17/35
XWnd 5 11 6 6 2 2 2 2 2 2 2 2 2 2
HWnd 3 4 10 10 11 11 11 11 11 11 11 11 11 11

NOTE: TEMPO conditions in [brackets]. Keep in mind TEMPO conditions might be better (lower impact) than prevailing conditions.

Raw TAF
KDEN 260056Z 2601/2706 08012KT P6SM FEW120 BKN200
  FM260200 11012KT P6SM FEW120 BKN200
  FM260400 15012KT P6SM FEW160 SCT220
  FM260600 17011KT P6SM FEW220
  FM261900 14011KT P6SM FEW090 SCT140
  PROB30 2622/2702 VRB15G30KT -TSRA BKN080CB


Raw METAR
KDEN 260153Z 12006KT 10SM FEW120 SCT160 SCT220 22/10 A3015 RMK AO2 SLP128 T02220100 $
KDEN 260053Z 08012KT 10SM FEW120 SCT160 BKN220 25/09 A3014 RMK AO2 SLP121 T02500094 $
KDEN 252353Z 07010KT 10SM FEW090 SCT120 BKN200 24/09 A3014 RMK AO2 SLP131 60001 T02390089 10289 20228 58001 $

METAR Board
Radar Display
Forecast Discussion

TAF Board Legend

Potential Impact
Threat None Slight Moderate High
Visibility (sm) ≥5.1 5.1>X≥3 3>X≥1 <1
Ceiling (100 ft) ≥30.1 30.1>X≥10 10>X≥5 <5
Wind Speed (kt) <10 10≤X<20 20≤X<30 ≥30
Wind Gust (kt) <15 15≤X<25 25≤X<35 ≥35
Weather No Wx Reported VCTS,-TS,-FZRA,SN TS,FZRA +TS,+FZRA,+SN